Time;durP1;ratioP1;P1;durP2;ratioP2;P2;SDS_P1;SDS_P2;PMS_P1;PMS_P2;Temp;Humidity;BMP_temperature;BMP_pressure;BME280_temperature;BME280_humidity;BME280_pressure;Samples;Min_cycle;Max_cycle;Signal;HPM_P1;HPM_P2
2022/04/04 00:02:26;;;;;;;9.45;4.65;;;3.40;99.90;;;;;;5044035;28;20059;-44
2022/04/04 00:04:52;;;;;;;8.65;4.45;;;3.40;99.90;;;;;;5052192;28;20052;-44
2022/04/04 00:07:19;;;;;;;7.88;4.40;;;3.30;99.90;;;;;;5050138;28;20472;-44
2022/04/04 00:09:46;;;;;;;12.50;4.90;;;3.40;99.90;;;;;;5037807;28;20423;-44
2022/04/04 00:12:13;;;;;;;8.02;4.25;;;3.30;99.90;;;;;;5049258;28;20112;-44
2022/04/04 00:14:40;;;;;;;7.18;4.32;;;3.30;99.90;;;;;;5051160;28;20103;-43
2022/04/04 00:17:06;;;;;;;10.88;5.75;;;3.30;99.90;;;;;;5050509;28;20040;-44
2022/04/04 00:19:34;;;;;;;7.43;4.13;;;3.30;99.90;;;;;;5040863;28;20408;-45
2022/04/04 00:22:01;;;;;;;8.63;4.82;;;3.30;99.90;;;;;;5051336;28;20064;-44
2022/04/04 00:24:28;;;;;;;10.45;4.55;;;3.30;99.90;;;;;;5050876;28;20052;-44
2022/04/04 00:26:54;;;;;;;10.07;4.95;;;3.30;99.90;;;;;;5051497;28;20052;-44
2022/04/04 00:29:21;;;;;;;7.47;4.53;;;3.30;99.90;;;;;;5041795;28;20103;-44
2022/04/04 00:31:48;;;;;;;9.82;4.90;;;3.30;99.90;;;;;;5035025;28;20057;-43
2022/04/04 00:34:14;;;;;;;8.07;5.03;;;3.20;99.90;;;;;;5051685;28;20043;-43
2022/04/04 00:36:43;;;;;;;8.93;4.60;;;3.20;99.90;;;;;;5051974;28;20424;-42
2022/04/04 00:39:10;;;;;;;7.07;4.60;;;3.30;99.90;;;;;;5050708;28;20049;-43
2022/04/04 00:41:36;;;;;;;11.30;5.10;;;3.20;99.90;;;;;;5044967;28;20045;-43
2022/04/04 00:44:03;;;;;;;6.57;5.32;;;3.20;99.90;;;;;;5050796;28;20057;-43
2022/04/04 00:46:30;;;;;;;9.80;5.32;;;3.20;99.90;;;;;;5051262;28;20056;-43
2022/04/04 00:48:57;;;;;;;6.78;4.70;;;3.20;99.90;;;;;;5052309;28;20048;-44
2022/04/04 00:51:26;;;;;;;7.97;4.90;;;3.20;99.90;;;;;;5050655;28;20434;-43
2022/04/04 00:53:54;;;;;;;10.02;5.35;;;3.20;99.90;;;;;;5054301;28;20059;-44
2022/04/04 00:56:21;;;;;;;8.13;5.50;;;3.20;99.90;;;;;;5053644;28;20148;-44
2022/04/04 00:58:48;;;;;;;9.27;5.78;;;3.20;99.90;;;;;;5054641;28;20424;-44
2022/04/04 01:01:15;;;;;;;10.23;5.30;;;3.30;99.90;;;;;;5035241;28;20478;-44
2022/04/04 01:03:42;;;;;;;11.07;5.75;;;3.30;99.90;;;;;;5045573;28;20049;-44
2022/04/04 01:06:09;;;;;;;9.23;6.10;;;3.30;99.90;;;;;;5053763;28;20051;-42
2022/04/04 01:08:35;;;;;;;10.20;5.70;;;3.40;99.90;;;;;;5054311;28;20444;-43
2022/04/04 01:11:03;;;;;;;11.73;6.93;;;3.40;99.90;;;;;;5045228;28;20049;-43
2022/04/04 01:13:30;;;;;;;12.65;7.20;;;3.40;99.90;;;;;;5054845;28;20048;-44
2022/04/04 01:15:57;;;;;;;12.38;7.20;;;3.40;99.90;;;;;;5040240;28;20053;-44
2022/04/04 01:18:24;;;;;;;11.27;6.75;;;3.40;99.90;;;;;;5053549;28;20431;-43
2022/04/04 01:20:51;;;;;;;14.77;7.95;;;3.50;99.90;;;;;;5045648;28;20049;-43
2022/04/04 01:23:24;;;;;;;15.90;8.27;;;3.50;99.90;;;;;;5055079;28;20071;-43
2022/04/04 01:25:52;;;;;;;14.75;9.70;;;3.50;99.90;;;;;;5050747;28;20063;-44
2022/04/04 01:28:19;;;;;;;16.70;9.88;;;3.60;99.90;;;;;;5050080;28;20041;-44
2022/04/04 01:30:49;;;;;;;16.15;10.45;;;3.60;99.90;;;;;;5043105;28;20045;-44
2022/04/04 01:33:16;;;;;;;15.45;11.75;;;3.60;99.90;;;;;;5054236;28;20049;-44
2022/04/04 01:35:43;;;;;;;16.77;10.98;;;3.70;99.90;;;;;;5052399;28;20511;-44
2022/04/04 01:38:09;;;;;;;17.73;10.60;;;3.70;99.90;;;;;;5055102;28;20409;-44
2022/04/04 01:40:36;;;;;;;21.00;13.07;;;3.70;99.90;;;;;;5055248;28;20049;-44
2022/04/04 01:43:04;;;;;;;15.57;11.68;;;3.80;99.90;;;;;;5055462;28;20055;-44
2022/04/04 01:48:15;;;;;;;19.05;12.32;;;3.80;99.90;;;;;;5053839;28;20084;-44
2022/04/04 01:50:42;;;;;;;21.23;11.40;;;3.80;99.90;;;;;;5054538;28;20063;-45
2022/04/04 01:53:27;;;;;;;20.42;11.68;;;3.90;99.90;;;;;;5055070;28;20057;-44
2022/04/04 01:55:54;;;;;;;17.67;11.35;;;3.90;99.90;;;;;;5053328;28;20049;-44
2022/04/04 01:58:23;;;;;;;18.33;10.85;;;3.90;99.90;;;;;;5045699;28;20048;-44
2022/04/04 02:00:50;;;;;;;15.80;11.00;;;3.90;99.90;;;;;;5044230;28;20049;-45
2022/04/04 02:03:16;;;;;;;16.25;11.25;;;4.00;99.90;;;;;;5053715;28;20136;-42
2022/04/04 02:05:43;;;;;;;16.42;11.60;;;4.00;99.90;;;;;;5053167;28;20049;-44
2022/04/04 02:08:10;;;;;;;15.05;11.32;;;4.00;99.90;;;;;;5041894;28;20393;-44
2022/04/04 02:10:36;;;;;;;15.82;11.25;;;4.00;99.90;;;;;;5050536;28;20048;-44
2022/04/04 02:13:03;;;;;;;15.40;11.13;;;4.00;99.90;;;;;;5053203;28;20045;-44
2022/04/04 02:15:31;;;;;;;21.85;11.57;;;4.00;99.90;;;;;;5054574;28;20052;-45
2022/04/04 02:17:58;;;;;;;16.50;11.02;;;4.00;99.90;;;;;;5053988;28;20057;-44
2022/04/04 02:20:25;;;;;;;22.60;11.82;;;4.10;99.90;;;;;;5054155;28;20049;-44
2022/04/04 02:22:51;;;;;;;21.02;12.00;;;4.10;99.90;;;;;;5053981;28;20055;-44
2022/04/04 02:25:18;;;;;;;19.63;11.52;;;4.10;99.90;;;;;;5052633;28;20076;-44
2022/04/04 02:27:45;;;;;;;18.35;11.80;;;4.10;99.90;;;;;;5052941;28;20041;-44
2022/04/04 02:30:12;;;;;;;23.92;13.60;;;4.10;99.90;;;;;;5051796;28;20053;-44
2022/04/04 02:32:40;;;;;;;19.40;11.50;;;4.20;99.90;;;;;;5053425;28;20686;-44
2022/04/04 02:35:07;;;;;;;25.85;12.68;;;4.20;99.90;;;;;;5053834;28;20423;-44
2022/04/04 02:37:34;;;;;;;24.27;12.68;;;4.20;99.90;;;;;;5051900;28;20490;-44
2022/04/04 02:40:01;;;;;;;18.00;11.93;;;4.20;99.90;;;;;;5051786;28;20053;-43
2022/04/04 02:42:27;;;;;;;22.77;12.18;;;4.20;99.90;;;;;;5053508;28;20121;-43
2022/04/04 02:44:55;;;;;;;20.73;12.25;;;4.20;99.90;;;;;;5044537;28;20516;-44
2022/04/04 02:47:21;;;;;;;23.50;13.27;;;4.20;99.90;;;;;;5053627;28;20052;-44
2022/04/04 02:49:49;;;;;;;18.85;12.55;;;4.30;99.90;;;;;;5053610;28;20457;-45
2022/04/04 02:52:16;;;;;;;23.98;13.70;;;4.30;99.90;;;;;;5054055;28;20055;-44
2022/04/04 02:54:43;;;;;;;21.85;14.43;;;4.30;99.90;;;;;;5053010;28;20535;-44
2022/04/04 02:57:08;;;;;;;22.90;12.95;;;4.30;99.90;;;;;;5051924;28;20059;-44
2022/04/04 02:59:35;;;;;;;20.25;13.45;;;4.30;99.90;;;;;;5053178;28;20135;-43
2022/04/04 03:02:02;;;;;;;25.42;14.38;;;4.30;99.90;;;;;;5047970;28;20045;-45
2022/04/04 03:04:28;;;;;;;23.27;14.30;;;4.30;99.90;;;;;;5052617;28;20059;-44
2022/04/04 03:06:56;;;;;;;22.17;14.40;;;4.30;99.90;;;;;;5053149;28;20378;-44
2022/04/04 03:09:23;;;;;;;19.98;13.77;;;4.40;99.90;;;;;;5054197;28;20067;-44
2022/04/04 03:11:50;;;;;;;22.42;13.57;;;4.40;99.90;;;;;;5047596;28;20386;-43
2022/04/04 03:14:16;;;;;;;26.80;14.95;;;4.40;99.90;;;;;;5052572;28;21365;-44
2022/04/04 03:16:43;;;;;;;27.42;14.10;;;4.50;99.90;;;;;;5051157;28;20061;-44
2022/04/04 03:19:10;;;;;;;22.27;14.10;;;4.50;99.90;;;;;;5049919;28;20051;-44
2022/04/04 03:21:37;;;;;;;24.33;13.77;;;4.50;99.90;;;;;;5053066;28;20049;-44
2022/04/04 03:24:06;;;;;;;23.48;13.80;;;4.50;99.90;;;;;;5043791;28;20061;-43
2022/04/04 03:26:33;;;;;;;20.83;13.77;;;4.50;99.90;;;;;;5050015;28;20107;-43
2022/04/04 03:28:59;;;;;;;25.15;14.50;;;4.50;99.90;;;;;;5049911;28;20052;-42
2022/04/04 03:31:26;;;;;;;21.58;13.55;;;4.50;99.90;;;;;;5049131;28;20412;-44
2022/04/04 03:33:53;;;;;;;22.30;14.82;;;4.60;99.90;;;;;;5053544;28;20053;-44
2022/04/04 03:36:20;;;;;;;21.35;13.65;;;4.60;99.90;;;;;;5049894;28;20051;-44
2022/04/04 03:38:46;;;;;;;20.85;13.43;;;4.60;99.90;;;;;;5052791;28;20045;-44
2022/04/04 03:41:14;;;;;;;22.50;13.32;;;4.60;99.90;;;;;;5051648;28;20608;-44
2022/04/04 03:43:41;;;;;;;21.42;13.65;;;4.70;99.90;;;;;;5052824;28;20137;-43
2022/04/04 03:46:08;;;;;;;20.85;13.20;;;4.70;99.90;;;;;;5048016;28;20455;-43
2022/04/04 03:48:34;;;;;;;22.92;13.80;;;4.70;99.90;;;;;;5048087;28;20045;-44
2022/04/04 03:51:01;;;;;;;21.73;13.18;;;4.70;99.90;;;;;;5051724;28;20067;-43
2022/04/04 03:53:28;;;;;;;24.27;13.38;;;4.70;99.90;;;;;;5047670;28;20136;-44
2022/04/04 03:55:55;;;;;;;20.30;12.88;;;4.70;99.90;;;;;;5047342;28;20123;-44
2022/04/04 03:58:23;;;;;;;23.13;13.23;;;4.80;99.90;;;;;;5045698;28;20129;-43
2022/04/04 04:00:50;;;;;;;25.33;13.10;;;4.80;99.90;;;;;;5048920;28;20194;-43
2022/04/04 04:03:17;;;;;;;17.67;12.77;;;4.80;99.90;;;;;;5050916;28;20056;-44
2022/04/04 04:05:43;;;;;;;17.88;12.32;;;4.80;99.90;;;;;;5052675;28;20417;-44
2022/04/04 04:08:10;;;;;;;21.30;12.73;;;4.80;99.90;;;;;;5052423;28;20135;-43
2022/04/04 04:10:37;;;;;;;18.90;12.38;;;4.90;99.90;;;;;;5052548;28;20091;-44
2022/04/04 04:13:05;;;;;;;21.13;13.48;;;4.90;99.90;;;;;;5049132;28;20496;-44
2022/04/04 04:15:33;;;;;;;21.85;12.95;;;4.90;99.90;;;;;;5036070;28;20071;-44
2022/04/04 04:18:00;;;;;;;21.38;13.60;;;4.90;99.90;;;;;;5045214;28;20422;-44
2022/04/04 04:20:31;;;;;;;20.90;13.05;;;4.90;99.90;;;;;;5046264;28;20051;-44
2022/04/04 04:22:59;;;;;;;19.27;12.70;;;4.90;99.90;;;;;;5050514;28;20482;-44
2022/04/04 04:25:28;;;;;;;20.40;12.45;;;5.00;99.90;;;;;;5057688;28;20074;-43
2022/04/04 04:27:54;;;;;;;22.60;13.07;;;5.00;99.90;;;;;;5039910;28;20540;-44
2022/04/04 04:30:21;;;;;;;19.10;12.30;;;5.00;99.90;;;;;;5051943;28;20051;-43
2022/04/04 04:32:51;;;;;;;20.65;13.07;;;5.00;99.90;;;;;;5051264;28;20080;-45
2022/04/04 04:35:18;;;;;;;26.70;13.68;;;5.00;99.90;;;;;;5064678;28;20397;-43
2022/04/04 04:37:45;;;;;;;21.73;13.60;;;5.00;99.90;;;;;;5053576;28;20055;-44
2022/04/04 04:40:12;;;;;;;23.88;14.10;;;5.00;99.90;;;;;;5049216;28;20055;-43
2022/04/04 04:42:39;;;;;;;21.75;12.98;;;5.00;99.90;;;;;;5051252;28;20056;-43
2022/04/04 04:45:07;;;;;;;22.20;12.73;;;5.00;99.90;;;;;;5050172;28;20064;-43
2022/04/04 04:47:34;;;;;;;19.70;13.38;;;5.00;99.90;;;;;;5035971;28;20055;-43
2022/04/04 04:50:03;;;;;;;26.92;13.60;;;5.00;99.90;;;;;;5051003;28;20056;-43
2022/04/04 04:52:30;;;;;;;23.92;13.75;;;5.00;99.90;;;;;;5050816;28;20049;-43
2022/04/04 04:54:57;;;;;;;20.42;12.93;;;5.00;99.90;;;;;;5048868;28;20107;-42
2022/04/04 04:57:26;;;;;;;25.40;12.80;;;5.00;99.90;;;;;;5047222;28;20087;-44
2022/04/04 04:59:53;;;;;;;20.17;12.32;;;5.00;99.90;;;;;;5050944;28;20057;-43
2022/04/04 05:02:20;;;;;;;20.95;13.05;;;5.00;99.90;;;;;;5046527;28;20115;-41
2022/04/04 05:04:47;;;;;;;25.35;14.10;;;5.00;99.90;;;;;;5027800;28;20053;-43
2022/04/04 05:07:19;;;;;;;23.73;13.93;;;5.00;99.90;;;;;;5034134;28;20540;-42
2022/04/04 05:09:46;;;;;;;24.35;13.60;;;5.00;99.90;;;;;;5047059;28;20464;-43
2022/04/04 05:12:13;;;;;;;19.90;13.35;;;5.00;99.90;;;;;;5037422;28;20145;-44
2022/04/04 05:14:40;;;;;;;19.58;13.82;;;5.10;99.90;;;;;;5039789;28;20636;-45
2022/04/04 05:17:07;;;;;;;24.40;15.10;;;5.00;99.90;;;;;;5038646;28;20052;-44
2022/04/04 05:19:37;;;;;;;29.00;14.15;;;5.10;99.90;;;;;;5041495;28;20496;-44
2022/04/04 05:22:05;;;;;;;21.33;13.70;;;5.10;99.90;;;;;;5039386;28;20059;-43
2022/04/04 05:24:33;;;;;;;19.25;13.77;;;5.10;99.90;;;;;;5042064;28;20136;-43
2022/04/04 05:27:00;;;;;;;22.75;14.82;;;5.10;99.90;;;;;;5049291;28;20056;-43
2022/04/04 05:29:27;;;;;;;19.45;12.70;;;5.10;99.90;;;;;;5050275;28;20045;-42
2022/04/04 05:31:55;;;;;;;20.45;14.13;;;5.10;99.90;;;;;;5051118;28;20068;-44
2022/04/04 05:34:21;;;;;;;29.85;13.15;;;5.10;99.90;;;;;;5050820;28;20136;-43
2022/04/04 05:36:48;;;;;;;26.13;13.55;;;5.10;99.90;;;;;;5049355;28;20084;-42
2022/04/04 05:39:15;;;;;;;22.90;13.95;;;5.20;99.90;;;;;;5051315;28;20045;-44
2022/04/04 05:41:43;;;;;;;19.30;12.85;;;5.10;99.90;;;;;;5053665;28;20511;-42
2022/04/04 05:44:10;;;;;;;24.98;13.52;;;5.20;99.90;;;;;;5037489;28;20084;-42
2022/04/04 05:46:36;;;;;;;21.85;12.68;;;5.20;99.90;;;;;;5049075;28;20045;-42
2022/04/04 05:49:03;;;;;;;22.23;13.48;;;5.20;99.90;;;;;;5054597;28;20048;-43
2022/04/04 05:51:31;;;;;;;25.13;12.80;;;5.20;99.90;;;;;;5052055;28;20416;-44
2022/04/04 05:53:58;;;;;;;23.38;13.50;;;5.20;99.90;;;;;;5054554;28;20057;-42
2022/04/04 05:56:25;;;;;;;18.17;12.80;;;5.20;99.90;;;;;;5045910;28;20041;-43
2022/04/04 05:58:53;;;;;;;21.42;13.02;;;5.20;99.90;;;;;;5034645;28;20081;-40
2022/04/04 06:01:19;;;;;;;22.48;14.32;;;5.20;99.90;;;;;;5037711;28;20191;-43
2022/04/04 06:03:46;;;;;;;21.30;13.00;;;5.20;99.90;;;;;;5065271;28;20058;-44
2022/04/04 06:06:13;;;;;;;18.45;11.93;;;5.20;99.90;;;;;;5074192;28;20044;-45
2022/04/04 06:08:40;;;;;;;23.17;12.98;;;5.20;99.90;;;;;;5073823;28;20051;-45
2022/04/04 06:11:06;;;;;;;23.30;13.25;;;5.20;99.90;;;;;;5034435;28;20048;-45
2022/04/04 06:13:34;;;;;;;18.10;12.65;;;5.10;99.90;;;;;;5044946;28;20047;-46
2022/04/04 06:16:02;;;;;;;24.38;12.65;;;5.20;99.90;;;;;;5052602;28;20049;-45
2022/04/04 06:18:29;;;;;;;21.52;11.80;;;5.20;99.90;;;;;;5050476;28;20481;-45
2022/04/04 06:20:56;;;;;;;18.85;12.38;;;5.20;99.90;;;;;;5045040;28;20406;-45
2022/04/04 06:23:23;;;;;;;22.73;12.38;;;5.20;99.90;;;;;;5039829;28;20056;-45
2022/04/04 06:25:51;;;;;;;19.95;12.65;;;5.20;99.90;;;;;;5040225;28;21149;-45
2022/04/04 06:28:17;;;;;;;24.45;11.93;;;5.20;99.90;;;;;;5052907;28;20051;-46
2022/04/04 06:30:44;;;;;;;18.15;11.70;;;5.20;99.90;;;;;;5051234;28;20313;-45
2022/04/04 06:33:12;;;;;;;23.05;12.82;;;5.20;99.90;;;;;;5051305;28;20124;-43
2022/04/04 06:35:39;;;;;;;23.20;12.40;;;5.10;99.90;;;;;;5053008;28;20052;-44
2022/04/04 06:38:06;;;;;;;21.42;13.10;;;5.10;99.90;;;;;;5052743;28;20087;-44
2022/04/04 06:40:33;;;;;;;19.75;12.55;;;5.10;99.90;;;;;;5047761;28;20051;-44
2022/04/04 06:43:00;;;;;;;23.60;12.45;;;5.10;99.90;;;;;;5049117;28;20136;-45
2022/04/04 06:45:27;;;;;;;21.65;12.68;;;5.10;99.90;;;;;;5049884;28;20063;-45
2022/04/04 06:47:54;;;;;;;19.38;11.25;;;5.10;99.90;;;;;;5041422;28;20133;-44
2022/04/04 06:50:23;;;;;;;26.17;12.98;;;5.10;99.90;;;;;;5043400;28;20474;-44
2022/04/04 06:52:52;;;;;;;20.80;12.93;;;5.10;99.90;;;;;;5034123;28;20045;-45
2022/04/04 06:55:19;;;;;;;22.88;14.43;;;5.10;99.90;;;;;;5046620;28;20052;-44
2022/04/04 06:57:46;;;;;;;18.63;13.10;;;5.10;99.90;;;;;;5039297;28;20050;-45
2022/04/04 07:00:15;;;;;;;23.85;13.75;;;5.10;99.90;;;;;;5033108;28;20140;-45
2022/04/04 07:02:42;;;;;;;24.55;14.73;;;5.10;99.90;;;;;;5061796;28;20052;-44
2022/04/04 07:05:10;;;;;;;24.95;14.95;;;5.10;99.90;;;;;;5051114;28;20040;-44
2022/04/04 07:07:38;;;;;;;21.02;14.00;;;5.10;99.90;;;;;;5052445;28;20048;-45
2022/04/04 07:10:05;;;;;;;25.30;14.10;;;5.10;99.90;;;;;;5036166;28;20084;-44
2022/04/04 07:12:32;;;;;;;22.73;14.65;;;5.20;99.90;;;;;;5031829;28;20136;-44
2022/04/04 07:14:59;;;;;;;25.75;14.30;;;5.20;99.90;;;;;;5047477;28;20154;-44
2022/04/04 07:17:25;;;;;;;24.65;13.55;;;5.20;99.90;;;;;;5051755;28;20059;-44
2022/04/04 07:19:53;;;;;;;21.30;14.57;;;5.20;99.90;;;;;;5044583;28;20072;-43
2022/04/04 07:22:19;;;;;;;20.23;13.77;;;5.20;99.90;;;;;;5050012;28;20107;-44
2022/04/04 07:24:48;;;;;;;20.92;13.40;;;5.20;99.90;;;;;;5043310;28;20144;-44
2022/04/04 07:27:14;;;;;;;20.52;14.73;;;5.30;99.90;;;;;;5034022;28;20313;-44
2022/04/04 07:29:42;;;;;;;22.35;14.55;;;5.20;99.90;;;;;;5042003;28;20095;-45
2022/04/04 07:32:09;;;;;;;27.40;15.10;;;5.20;99.90;;;;;;5042102;28;20057;-45
2022/04/04 07:34:36;;;;;;;23.67;14.88;;;5.30;99.90;;;;;;5038444;28;20049;-45
2022/04/04 07:37:04;;;;;;;23.05;14.80;;;5.30;99.90;;;;;;5041677;28;20505;-44
2022/04/04 07:39:31;;;;;;;25.33;15.00;;;5.30;99.90;;;;;;5051837;28;20504;-45
2022/04/04 07:41:59;;;;;;;24.75;15.07;;;5.30;99.90;;;;;;5049839;28;20080;-44
2022/04/04 07:44:26;;;;;;;20.98;13.98;;;5.30;99.90;;;;;;5052136;28;20056;-43
2022/04/04 07:46:53;;;;;;;27.52;15.55;;;5.30;99.90;;;;;;5050792;28;20473;-45
2022/04/04 07:49:19;;;;;;;25.33;15.65;;;5.30;99.90;;;;;;5051108;28;20136;-45
2022/04/04 07:51:46;;;;;;;23.02;16.05;;;5.30;99.90;;;;;;5051755;28;20053;-45
2022/04/04 07:54:13;;;;;;;25.52;16.67;;;5.30;99.90;;;;;;5048892;28;20129;-45
2022/04/04 07:56:40;;;;;;;24.23;15.88;;;5.30;99.90;;;;;;5040306;28;20072;-46
2022/04/04 07:59:08;;;;;;;25.98;16.90;;;5.30;99.90;;;;;;5049710;28;20135;-45
2022/04/04 08:01:35;;;;;;;25.35;16.98;;;5.40;99.90;;;;;;5042344;28;20049;-45
2022/04/04 08:04:02;;;;;;;24.65;16.50;;;5.40;99.90;;;;;;5042124;28;20053;-45
2022/04/04 08:06:28;;;;;;;29.92;18.25;;;5.40;99.90;;;;;;5048016;28;20072;-45
2022/04/04 08:08:55;;;;;;;28.70;19.15;;;5.40;99.90;;;;;;5050456;28;20055;-45
2022/04/04 08:11:22;;;;;;;28.95;20.33;;;5.40;99.90;;;;;;5044457;28;20042;-45
2022/04/04 08:13:48;;;;;;;31.92;17.98;;;5.40;99.90;;;;;;5041897;28;20055;-44
2022/04/04 08:16:17;;;;;;;26.85;18.30;;;5.40;99.90;;;;;;5049123;28;20424;-44
2022/04/04 08:18:43;;;;;;;25.25;18.42;;;5.40;99.90;;;;;;5045001;28;20049;-44
2022/04/04 08:21:10;;;;;;;30.08;17.92;;;5.40;99.90;;;;;;5042523;28;20557;-45
2022/04/04 08:23:37;;;;;;;25.00;18.02;;;5.50;99.90;;;;;;5035426;28;20136;-44
2022/04/04 08:26:03;;;;;;;27.52;17.67;;;5.50;99.90;;;;;;5048491;28;20430;-45
2022/04/04 08:28:30;;;;;;;28.27;18.88;;;5.50;99.90;;;;;;5050984;28;20095;-44
2022/04/04 08:30:57;;;;;;;25.40;16.50;;;5.50;99.90;;;;;;5049595;28;20048;-44
2022/04/04 08:33:27;;;;;;;24.60;16.40;;;5.50;99.90;;;;;;5050304;28;20059;-44
2022/04/04 08:35:53;;;;;;;23.13;15.52;;;5.50;99.90;;;;;;5051287;28;20103;-44
2022/04/04 08:38:20;;;;;;;20.85;15.07;;;5.60;99.90;;;;;;5050480;28;20049;-44
2022/04/04 08:40:48;;;;;;;21.33;13.60;;;5.50;99.90;;;;;;5047059;28;20105;-45
2022/04/04 08:43:15;;;;;;;15.18;12.65;;;5.60;99.90;;;;;;5045159;28;20045;-45
2022/04/04 08:45:42;;;;;;;18.38;12.93;;;5.60;99.90;;;;;;5040584;28;20047;-45
2022/04/04 08:48:09;;;;;;;21.10;12.57;;;5.60;99.90;;;;;;5049490;28;20049;-46
2022/04/04 08:50:39;;;;;;;17.70;11.20;;;5.60;99.90;;;;;;5033936;28;20554;-45
2022/04/04 08:53:06;;;;;;;19.92;11.88;;;5.60;99.90;;;;;;5041610;28;20049;-45
2022/04/04 08:55:34;;;;;;;18.67;10.55;;;5.70;99.90;;;;;;5051636;28;20045;-45
2022/04/04 08:58:01;;;;;;;16.17;10.30;;;5.70;99.90;;;;;;5049304;28;20072;-44
2022/04/04 09:00:27;;;;;;;11.50;8.18;;;5.70;99.90;;;;;;5049010;28;20147;-44
2022/04/04 09:02:58;;;;;;;14.52;9.30;;;5.70;99.90;;;;;;5043424;28;20132;-45
2022/04/04 09:05:26;;;;;;;19.92;7.75;;;5.70;99.90;;;;;;5031550;28;20085;-45
2022/04/04 09:08:04;;;;;;;14.88;7.43;;;5.80;99.90;;;;;;5030731;28;20095;-44
2022/04/04 09:10:32;;;;;;;9.93;6.68;;;5.80;99.90;;;;;;5045919;28;20104;-45
2022/04/04 09:13:09;;;;;;;10.23;6.65;;;5.80;99.90;;;;;;5050002;28;20477;-45
2022/04/04 09:15:55;;;;;;;11.95;5.53;;;5.90;99.90;;;;;;5051247;28;20620;-45
2022/04/04 09:18:44;;;;;;;10.35;6.07;;;5.90;99.90;;;;;;5048526;28;20053;-44
2022/04/04 09:21:12;;;;;;;9.95;4.80;;;5.90;99.90;;;;;;5051595;28;20099;-45
2022/04/04 09:23:54;;;;;;;10.57;4.82;;;5.90;99.90;;;;;;5052801;28;20053;-44
2022/04/04 09:26:32;;;;;;;10.57;4.70;;;5.90;99.90;;;;;;5052518;28;20076;-44
2022/04/04 09:28:59;;;;;;;8.68;4.18;;;6.00;99.90;;;;;;5054577;28;20051;-44
2022/04/04 09:31:27;;;;;;;6.53;4.13;;;6.00;99.90;;;;;;5049387;28;20189;-45
2022/04/04 09:33:57;;;;;;;7.55;3.60;;;6.00;99.90;;;;;;5048937;28;20041;-44
2022/04/04 09:36:24;;;;;;;11.73;3.78;;;6.00;99.90;;;;;;5039268;28;20049;-45
2022/04/04 09:39:03;;;;;;;7.03;4.07;;;6.00;99.90;;;;;;5053979;28;20308;-44
2022/04/04 09:41:30;;;;;;;6.57;3.90;;;6.00;99.90;;;;;;5045775;28;20095;-44
2022/04/04 09:43:59;;;;;;;10.45;3.95;;;6.00;99.90;;;;;;5051529;28;20052;-44
2022/04/04 09:46:31;;;;;;;8.35;4.10;;;6.00;99.90;;;;;;5044396;28;20051;-44
2022/04/04 09:49:05;;;;;;;8.73;3.65;;;6.10;99.90;;;;;;5033315;28;20053;-44
2022/04/04 09:51:36;;;;;;;6.78;3.88;;;6.00;99.90;;;;;;5050796;28;20416;-45
2022/04/04 09:54:05;;;;;;;9.80;4.40;;;6.10;99.90;;;;;;5050058;28;20647;-44
2022/04/04 09:56:32;;;;;;;7.20;3.92;;;6.10;99.90;;;;;;5046782;28;20480;-44
2022/04/04 09:58:59;;;;;;;9.55;3.90;;;6.10;99.90;;;;;;5040180;28;20048;-43
2022/04/04 10:01:26;;;;;;;10.95;4.78;;;6.10;99.90;;;;;;5053292;28;20057;-44
2022/04/04 10:03:53;;;;;;;7.85;4.13;;;6.10;99.90;;;;;;5053848;28;20059;-44
2022/04/04 10:06:19;;;;;;;12.02;4.50;;;6.20;99.90;;;;;;5048428;28;20060;-44
2022/04/04 10:08:51;;;;;;;7.00;4.13;;;6.20;99.90;;;;;;5034290;28;20051;-45
2022/04/04 10:11:19;;;;;;;8.93;5.07;;;6.20;99.90;;;;;;5034296;28;20136;-46
2022/04/04 10:13:45;;;;;;;11.65;4.70;;;6.20;99.90;;;;;;5043713;28;20126;-45
2022/04/04 10:16:12;;;;;;;9.10;4.82;;;6.20;99.90;;;;;;5053342;28;20456;-45
2022/04/04 10:18:39;;;;;;;8.55;4.57;;;6.20;99.90;;;;;;5053875;28;20080;-45
2022/04/04 10:21:06;;;;;;;8.02;4.78;;;6.20;99.90;;;;;;5040240;28;20060;-44
2022/04/04 10:23:32;;;;;;;7.07;4.30;;;6.20;99.90;;;;;;5033903;28;20089;-44
2022/04/04 10:26:00;;;;;;;8.20;4.43;;;6.20;99.90;;;;;;5033871;28;20055;-46
2022/04/04 10:28:28;;;;;;;8.40;3.95;;;6.20;99.90;;;;;;5028310;28;20077;-44
2022/04/04 10:30:58;;;;;;;8.65;4.32;;;6.30;99.90;;;;;;5038300;28;20048;-45
2022/04/04 10:33:25;;;;;;;8.43;3.97;;;6.30;99.90;;;;;;5049223;28;20050;-45
2022/04/04 10:36:01;;;;;;;9.80;4.78;;;6.30;99.90;;;;;;5042385;28;20132;-45
2022/04/04 10:38:31;;;;;;;7.95;4.57;;;6.30;99.90;;;;;;5032945;28;20054;-44
2022/04/04 10:40:58;;;;;;;7.95;4.43;;;6.40;99.90;;;;;;5045296;28;20065;-46
2022/04/04 10:43:25;;;;;;;8.93;4.05;;;6.30;99.90;;;;;;5034353;28;20057;-46
2022/04/04 10:45:55;;;;;;;8.88;4.47;;;6.40;99.90;;;;;;5039174;28;20152;-45
2022/04/04 10:48:27;;;;;;;6.10;4.35;;;6.40;99.90;;;;;;5034331;28;20057;-44
2022/04/04 10:50:54;;;;;;;10.50;4.20;;;6.40;99.90;;;;;;5052105;28;20041;-46
2022/04/04 10:53:35;;;;;;;8.73;3.95;;;6.40;99.90;;;;;;5053604;28;20146;-45
2022/04/04 10:56:05;;;;;;;7.32;3.88;;;6.40;99.90;;;;;;5053819;28;20645;-45
2022/04/04 10:58:31;;;;;;;8.07;4.30;;;6.40;99.90;;;;;;5052791;28;20048;-45
2022/04/04 11:01:07;;;;;;;10.00;4.13;;;6.50;99.90;;;;;;5052821;28;20052;-44
2022/04/04 11:03:35;;;;;;;10.18;4.28;;;6.50;99.90;;;;;;5053548;28;20041;-44
2022/04/04 11:09:19;;;;;;;7.50;3.78;;;6.60;99.90;;;;;;5053013;28;20401;-45
2022/04/04 11:11:52;;;;;;;6.82;3.60;;;6.60;99.90;;;;;;5053355;28;20092;-45
2022/04/04 11:14:19;;;;;;;7.47;3.97;;;6.70;99.90;;;;;;5047867;28;20057;-45
2022/04/04 11:17:30;;;;;;;6.03;3.92;;;6.70;99.90;;;;;;5052850;28;20128;-46
2022/04/04 11:20:00;;;;;;;7.25;4.18;;;6.70;99.90;;;;;;4991222;28;20599;-46
2022/04/04 11:22:28;;;;;;;10.70;6.43;;;6.80;99.90;;;;;;5050646;28;20106;-45
2022/04/04 11:24:58;;;;;;;6.28;3.65;;;6.80;99.90;;;;;;5041467;28;20136;-44
2022/04/04 11:27:48;;;;;;;9.50;3.72;;;6.90;99.90;;;;;;5033168;28;20054;-45
2022/04/04 11:30:15;;;;;;;8.20;3.72;;;6.90;99.90;;;;;;5031336;28;20049;-44
2022/04/04 11:32:44;;;;;;;6.03;3.90;;;6.90;99.90;;;;;;5033895;28;20104;-46
2022/04/04 11:35:12;;;;;;;5.40;3.25;;;6.90;99.90;;;;;;5032556;28;20052;-45
2022/04/04 11:37:43;;;;;;;5.63;3.97;;;7.00;99.90;;;;;;5032453;28;20409;-46
2022/04/04 11:41:01;;;;;;;4.43;3.42;;;7.00;99.90;;;;;;5039212;28;20059;-46
2022/04/04 11:43:29;;;;;;;6.10;3.53;;;7.00;99.90;;;;;;4878608;29;20057;-45
2022/04/04 11:45:55;;;;;;;7.72;2.60;;;7.00;99.90;;;;;;4977181;28;20044;-46
2022/04/04 11:48:28;;;;;;;4.60;2.20;;;7.10;99.90;;;;;;5051678;28;20226;-45
2022/04/04 11:50:57;;;;;;;5.40;2.08;;;7.20;99.90;;;;;;5052000;28;20091;-45
2022/04/04 11:53:48;;;;;;;4.15;1.80;;;7.20;99.90;;;;;;5042455;28;20060;-44
2022/04/04 11:56:22;;;;;;;2.70;1.77;;;7.20;99.90;;;;;;4983269;28;20053;-44
2022/04/04 11:58:51;;;;;;;4.18;1.90;;;7.30;99.90;;;;;;5050996;28;20057;-44
2022/04/04 12:01:17;;;;;;;4.03;1.90;;;7.30;99.90;;;;;;5052041;28;20567;-44
2022/04/04 12:03:49;;;;;;;3.83;2.00;;;7.30;99.90;;;;;;5051134;28;20059;-44
2022/04/04 12:06:40;;;;;;;4.07;1.60;;;7.40;99.90;;;;;;5051499;28;20052;-43
2022/04/04 12:09:10;;;;;;;2.92;2.00;;;7.40;99.90;;;;;;5044455;28;20045;-43
2022/04/04 12:11:37;;;;;;;3.10;1.52;;;7.40;99.90;;;;;;5052220;28;20495;-43
2022/04/04 12:14:04;;;;;;;4.68;1.60;;;7.50;99.90;;;;;;5051255;28;20059;-44
2022/04/04 12:16:32;;;;;;;2.85;1.45;;;7.50;99.90;;;;;;5043774;28;20106;-43
2022/04/04 12:19:01;;;;;;;3.58;1.85;;;7.50;99.90;;;;;;5045788;28;20128;-43
2022/04/04 12:21:27;;;;;;;3.53;1.83;;;7.60;99.90;;;;;;5043107;28;20384;-44
2022/04/04 12:26:38;;;;;;;2.00;1.38;;;7.60;99.90;;;;;;5054550;28;20048;-45
2022/04/04 12:29:10;;;;;;;2.55;1.40;;;7.60;99.90;;;;;;5051307;28;20051;-45
2022/04/04 12:31:37;;;;;;;2.72;1.30;;;7.70;99.90;;;;;;5051067;28;20042;-44
2022/04/04 12:34:06;;;;;;;3.33;1.40;;;7.70;99.90;;;;;;5051973;28;20053;-44
2022/04/04 12:36:37;;;;;;;3.67;1.55;;;7.70;99.90;;;;;;5051527;28;20154;-44
2022/04/04 12:39:05;;;;;;;2.40;1.23;;;7.80;99.90;;;;;;5048926;28;20053;-43
2022/04/04 12:41:40;;;;;;;4.00;1.50;;;7.80;99.90;;;;;;5048579;28;20102;-45
2022/04/04 12:44:07;;;;;;;3.83;1.50;;;7.80;99.90;;;;;;5050118;28;20131;-43
2022/04/04 12:46:35;;;;;;;2.80;1.75;;;7.90;99.90;;;;;;5051200;28;20049;-44
2022/04/04 12:49:10;;;;;;;2.85;1.95;;;7.90;99.90;;;;;;5052583;28;20048;-44
2022/04/04 12:51:38;;;;;;;2.88;1.30;;;8.00;99.90;;;;;;5056158;28;20047;-44
2022/04/04 12:54:04;;;;;;;3.28;1.02;;;7.90;99.90;;;;;;5050237;28;20045;-45
2022/04/04 12:56:43;;;;;;;1.67;1.17;;;8.00;99.90;;;;;;5039363;28;20144;-44
2022/04/04 12:59:10;;;;;;;2.75;1.20;;;8.00;99.90;;;;;;5055015;28;20404;-44